sensor_id;sensor_type;location;lat;lon;timestamp;pressure;altitude;pressure_sealevel;temperature
74321;BMP280;62738;45.772;4.804;2023-02-28T00:01:20;99917.22;;;3.10
74321;BMP280;62738;45.772;4.804;2023-02-28T00:03:47;99932.69;;;3.02
74321;BMP280;62738;45.772;4.804;2023-02-28T00:06:14;99932.66;;;3.07
74321;BMP280;62738;45.772;4.804;2023-02-28T00:08:41;99921.47;;;3.05
74321;BMP280;62738;45.772;4.804;2023-02-28T00:11:12;99923.97;;;3.03
74321;BMP280;62738;45.772;4.804;2023-02-28T00:13:41;99921.94;;;3.09
74321;BMP280;62738;45.772;4.804;2023-02-28T00:16:13;99927.47;;;3.04
74321;BMP280;62738;45.772;4.804;2023-02-28T00:18:40;99917.78;;;2.86
74321;BMP280;62738;45.772;4.804;2023-02-28T00:21:07;99922.50;;;2.86
74321;BMP280;62738;45.772;4.804;2023-02-28T00:23:34;99917.31;;;2.65
74321;BMP280;62738;45.772;4.804;2023-02-28T00:26:01;99922.03;;;2.48
74321;BMP280;62738;45.772;4.804;2023-02-28T00:28:28;99925.03;;;2.61
74321;BMP280;62738;45.772;4.804;2023-02-28T00:30:55;99936.97;;;2.53
74321;BMP280;62738;45.772;4.804;2023-02-28T00:33:23;99937.22;;;2.49
74321;BMP280;62738;45.772;4.804;2023-02-28T00:35:50;99940.94;;;2.46
74321;BMP280;62738;45.772;4.804;2023-02-28T00:38:17;99942.22;;;2.62
74321;BMP280;62738;45.772;4.804;2023-02-28T00:40:43;99946.47;;;2.63
74321;BMP280;62738;45.772;4.804;2023-02-28T00:43:10;99940.22;;;2.68
74321;BMP280;62738;45.772;4.804;2023-02-28T00:45:37;99934.25;;;2.58
74321;BMP280;62738;45.772;4.804;2023-02-28T00:48:04;99928.00;;;2.69
74321;BMP280;62738;45.772;4.804;2023-02-28T00:50:30;99925.53;;;2.43
74321;BMP280;62738;45.772;4.804;2023-02-28T00:52:57;99930.75;;;2.35
74321;BMP280;62738;45.772;4.804;2023-02-28T00:55:24;99927.25;;;2.46
74321;BMP280;62738;45.772;4.804;2023-02-28T00:57:50;99935.47;;;2.46
74321;BMP280;62738;45.772;4.804;2023-02-28T01:00:17;99936.50;;;2.60
74321;BMP280;62738;45.772;4.804;2023-02-28T01:02:44;99940.47;;;2.64
74321;BMP280;62738;45.772;4.804;2023-02-28T01:05:11;99941.94;;;2.76
74321;BMP280;62738;45.772;4.804;2023-02-28T01:07:37;99943.44;;;2.77
74321;BMP280;62738;45.772;4.804;2023-02-28T01:10:05;99932.22;;;2.81
74321;BMP280;62738;45.772;4.804;2023-02-28T01:12:31;99940.44;;;2.75
74321;BMP280;62738;45.772;4.804;2023-02-28T01:14:58;99945.91;;;2.81
74321;BMP280;62738;45.772;4.804;2023-02-28T01:17:24;99945.66;;;2.85
74321;BMP280;62738;45.772;4.804;2023-02-28T01:19:54;99950.41;;;2.90
74321;BMP280;62738;45.772;4.804;2023-02-28T01:22:21;99940.69;;;2.83
74321;BMP280;62738;45.772;4.804;2023-02-28T01:24:48;99955.16;;;2.72
74321;BMP280;62738;45.772;4.804;2023-02-28T01:27:14;99946.69;;;2.70
74321;BMP280;62738;45.772;4.804;2023-02-28T01:29:41;99945.19;;;2.64
74321;BMP280;62738;45.772;4.804;2023-02-28T01:32:08;99959.91;;;2.44
74321;BMP280;62738;45.772;4.804;2023-02-28T01:34:34;99946.94;;;2.50
74321;BMP280;62738;45.772;4.804;2023-02-28T01:37:01;99946.44;;;2.57
74321;BMP280;62738;45.772;4.804;2023-02-28T01:39:29;99956.66;;;2.57
74321;BMP280;62738;45.772;4.804;2023-02-28T01:41:56;99947.44;;;2.65
74321;BMP280;62738;45.772;4.804;2023-02-28T01:47:38;99944.44;;;2.74
74321;BMP280;62738;45.772;4.804;2023-02-28T01:50:10;99942.41;;;2.97
74321;BMP280;62738;45.772;4.804;2023-02-28T01:52:38;99950.91;;;2.94
74321;BMP280;62738;45.772;4.804;2023-02-28T01:55:06;99951.66;;;2.83
74321;BMP280;62738;45.772;4.804;2023-02-28T01:58:00;99951.34;;;3.09
74321;BMP280;62738;45.772;4.804;2023-02-28T02:03:17;99952.88;;;2.99
74321;BMP280;62738;45.772;4.804;2023-02-28T02:05:45;99955.38;;;2.97
74321;BMP280;62738;45.772;4.804;2023-02-28T02:08:19;99958.88;;;2.81
74321;BMP280;62738;45.772;4.804;2023-02-28T02:10:48;99962.13;;;2.85
74321;BMP280;62738;45.772;4.804;2023-02-28T02:13:29;99956.13;;;2.92
74321;BMP280;62738;45.772;4.804;2023-02-28T02:24:03;99942.38;;;3.14
74321;BMP280;62738;45.772;4.804;2023-02-28T02:35:05;99944.44;;;2.74
74321;BMP280;62738;45.772;4.804;2023-02-28T02:40:33;99940.41;;;2.98
74321;BMP280;62738;45.772;4.804;2023-02-28T02:43:07;99950.34;;;3.12
74321;BMP280;62738;45.772;4.804;2023-02-28T02:45:41;99952.88;;;2.99
74321;BMP280;62738;45.772;4.804;2023-02-28T02:48:12;99953.88;;;2.96
74321;BMP280;62738;45.772;4.804;2023-02-28T02:50:43;99963.34;;;2.78
74321;BMP280;62738;45.772;4.804;2023-02-28T02:53:11;99963.63;;;2.58
74321;BMP280;62738;45.772;4.804;2023-02-28T02:55:41;99951.41;;;2.36
74321;BMP280;62738;45.772;4.804;2023-02-28T02:58:15;99950.16;;;2.26
74321;BMP280;62738;45.772;4.804;2023-02-28T03:00:47;99937.72;;;2.36
74321;BMP280;62738;45.772;4.804;2023-02-28T03:03:16;99948.91;;;2.22
74321;BMP280;62738;45.772;4.804;2023-02-28T03:05:49;99944.44;;;2.24
74321;BMP280;62738;45.772;4.804;2023-02-28T03:08:16;99952.88;;;2.15
74321;BMP280;62738;45.772;4.804;2023-02-28T03:10:45;99941.91;;;2.15
74321;BMP280;62738;45.772;4.804;2023-02-28T03:19:01;99955.38;;;2.24
74321;BMP280;62738;45.772;4.804;2023-02-28T03:24:34;99944.41;;;2.19
74321;BMP280;62738;45.772;4.804;2023-02-28T03:27:11;99947.16;;;2.13
74321;BMP280;62738;45.772;4.804;2023-02-28T03:29:48;99948.19;;;2.27
74321;BMP280;62738;45.772;4.804;2023-02-28T03:32:22;99954.16;;;2.25
74321;BMP280;62738;45.772;4.804;2023-02-28T03:34:58;99961.38;;;2.34
74321;BMP280;62738;45.772;4.804;2023-02-28T03:37:28;99960.38;;;2.37
74321;BMP280;62738;45.772;4.804;2023-02-28T03:40:01;99962.63;;;2.27
74321;BMP280;62738;45.772;4.804;2023-02-28T03:42:33;99955.13;;;2.22
74321;BMP280;62738;45.772;4.804;2023-02-28T03:45:04;99960.88;;;2.35
74321;BMP280;62738;45.772;4.804;2023-02-28T03:47:38;99949.19;;;2.52
74321;BMP280;62738;45.772;4.804;2023-02-28T03:50:18;99949.66;;;2.45
74321;BMP280;62738;45.772;4.804;2023-02-28T03:53:00;99955.38;;;2.24
74321;BMP280;62738;45.772;4.804;2023-02-28T03:55:45;99954.13;;;2.31
74321;BMP280;62738;45.772;4.804;2023-02-28T04:01:14;99944.63;;;1.98
74321;BMP280;62738;45.772;4.804;2023-02-28T04:03:42;99944.13;;;2.00
74321;BMP280;62738;45.772;4.804;2023-02-28T04:06:15;99952.09;;;1.98
74321;BMP280;62738;45.772;4.804;2023-02-28T04:08:43;99950.88;;;2.04
74321;BMP280;62738;45.772;4.804;2023-02-28T04:11:23;99951.38;;;2.09
74321;BMP280;62738;45.772;4.804;2023-02-28T04:13:50;99961.81;;;2.16
74321;BMP280;62738;45.772;4.804;2023-02-28T04:16:17;99975.56;;;2.49
74321;BMP280;62738;45.772;4.804;2023-02-28T04:19:00;99976.31;;;2.55
74321;BMP280;62738;45.772;4.804;2023-02-28T04:21:36;99971.34;;;2.59
74321;BMP280;62738;45.772;4.804;2023-02-28T04:24:07;99972.06;;;2.65
74321;BMP280;62738;45.772;4.804;2023-02-28T04:26:36;99969.34;;;2.65
74321;BMP280;62738;45.772;4.804;2023-02-28T04:29:04;99976.31;;;2.55
74321;BMP280;62738;45.772;4.804;2023-02-28T04:31:31;99973.09;;;2.62
74321;BMP280;62738;45.772;4.804;2023-02-28T04:33:59;99967.84;;;2.48
74321;BMP280;62738;45.772;4.804;2023-02-28T04:36:26;99965.13;;;2.42
74321;BMP280;62738;45.772;4.804;2023-02-28T04:38:53;99970.84;;;2.44
74321;BMP280;62738;45.772;4.804;2023-02-28T04:41:21;99975.03;;;2.12
74321;BMP280;62738;45.772;4.804;2023-02-28T04:43:50;99981.50;;;2.20
74321;BMP280;62738;45.772;4.804;2023-02-28T04:46:17;99982.00;;;2.18
74321;BMP280;62738;45.772;4.804;2023-02-28T04:48:44;99991.72;;;2.36
74321;BMP280;62738;45.772;4.804;2023-02-28T04:51:13;99997.47;;;2.38
74321;BMP280;62738;45.772;4.804;2023-02-28T04:53:41;99987.00;;;2.48
74321;BMP280;62738;45.772;4.804;2023-02-28T04:56:12;99995.97;;;2.48
74321;BMP280;62738;45.772;4.804;2023-02-28T04:58:38;99995.47;;;2.38
74321;BMP280;62738;45.772;4.804;2023-02-28T05:01:16;100001.69;;;2.39
74321;BMP280;62738;45.772;4.804;2023-02-28T05:03:43;100001.44;;;2.26
74321;BMP280;62738;45.772;4.804;2023-02-28T05:06:11;100014.88;;;2.40
74321;BMP280;62738;45.772;4.804;2023-02-28T05:08:39;100019.88;;;2.42
74321;BMP280;62738;45.772;4.804;2023-02-28T05:11:15;100016.88;;;2.51
74321;BMP280;62738;45.772;4.804;2023-02-28T05:13:42;100012.91;;;2.52
74321;BMP280;62738;45.772;4.804;2023-02-28T05:16:09;100013.88;;;2.38
74321;BMP280;62738;45.772;4.804;2023-02-28T05:18:37;100014.16;;;2.40
74321;BMP280;62738;45.772;4.804;2023-02-28T05:21:04;100015.84;;;2.21
74321;BMP280;62738;45.772;4.804;2023-02-28T05:23:31;100015.88;;;2.26
74321;BMP280;62738;45.772;4.804;2023-02-28T05:25:57;100002.38;;;2.17
74321;BMP280;62738;45.772;4.804;2023-02-28T05:28:24;100009.84;;;2.17
74321;BMP280;62738;45.772;4.804;2023-02-28T05:30:51;100005.84;;;2.06
74321;BMP280;62738;45.772;4.804;2023-02-28T05:33:17;100012.56;;;2.05
74321;BMP280;62738;45.772;4.804;2023-02-28T05:35:44;100016.31;;;2.08
74321;BMP280;62738;45.772;4.804;2023-02-28T05:38:11;100012.59;;;2.17
74321;BMP280;62738;45.772;4.804;2023-02-28T05:40:38;100014.09;;;2.12
74321;BMP280;62738;45.772;4.804;2023-02-28T05:43:10;100012.50;;;1.94
74321;BMP280;62738;45.772;4.804;2023-02-28T05:45:36;100017.28;;;2.05
74321;BMP280;62738;45.772;4.804;2023-02-28T05:48:03;100022.53;;;2.14
74321;BMP280;62738;45.772;4.804;2023-02-28T05:50:30;100014.59;;;2.22
74321;BMP280;62738;45.772;4.804;2023-02-28T05:52:56;100019.56;;;2.12
74321;BMP280;62738;45.772;4.804;2023-02-28T05:55:23;100021.06;;;2.30
74321;BMP280;62738;45.772;4.804;2023-02-28T05:57:50;100019.03;;;2.08
74321;BMP280;62738;45.772;4.804;2023-02-28T06:00:17;100017.81;;;2.09
74321;BMP280;62738;45.772;4.804;2023-02-28T06:02:44;100021.34;;;2.26
74321;BMP280;62738;45.772;4.804;2023-02-28T06:05:15;100014.84;;;2.24
74321;BMP280;62738;45.772;4.804;2023-02-28T06:07:43;100018.84;;;2.23
74321;BMP280;62738;45.772;4.804;2023-02-28T06:10:11;100020.06;;;2.11
74321;BMP280;62738;45.772;4.804;2023-02-28T06:12:39;100026.53;;;2.19
74321;BMP280;62738;45.772;4.804;2023-02-28T06:15:12;100019.59;;;2.46
74321;BMP280;62738;45.772;4.804;2023-02-28T06:17:40;100016.41;;;2.64
74321;BMP280;62738;45.772;4.804;2023-02-28T06:20:08;100025.59;;;2.38
74321;BMP280;62738;45.772;4.804;2023-02-28T06:22:36;100034.28;;;2.37
74321;BMP280;62738;45.772;4.804;2023-02-28T06:25:04;100026.09;;;2.48
74321;BMP280;62738;45.772;4.804;2023-02-28T06:27:32;100034.31;;;2.42
74321;BMP280;62738;45.772;4.804;2023-02-28T06:29:59;100033.56;;;2.42
74321;BMP280;62738;45.772;4.804;2023-02-28T06:32:25;100040.53;;;2.37
74321;BMP280;62738;45.772;4.804;2023-02-28T06:34:52;100039.03;;;2.36
74321;BMP280;62738;45.772;4.804;2023-02-28T06:37:19;100035.78;;;2.27
74321;BMP280;62738;45.772;4.804;2023-02-28T06:39:46;100034.56;;;2.50
74321;BMP280;62738;45.772;4.804;2023-02-28T06:42:13;100043.75;;;2.47
74321;BMP280;62738;45.772;4.804;2023-02-28T06:44:39;100044.25;;;2.40
74321;BMP280;62738;45.772;4.804;2023-02-28T06:47:06;100040.75;;;2.34
74321;BMP280;62738;45.772;4.804;2023-02-28T06:49:34;100047.78;;;2.57
74321;BMP280;62738;45.772;4.804;2023-02-28T06:52:02;100045.19;;;2.15
74321;BMP280;62738;45.772;4.804;2023-02-28T06:54:28;100054.59;;;2.02
74321;BMP280;62738;45.772;4.804;2023-02-28T06:56:55;100053.94;;;2.30
74321;BMP280;62738;45.772;4.804;2023-02-28T06:59:22;100056.97;;;2.43
74321;BMP280;62738;45.772;4.804;2023-02-28T07:01:48;100049.25;;;2.47
74321;BMP280;62738;45.772;4.804;2023-02-28T07:04:15;100056.97;;;2.54
74321;BMP280;62738;45.772;4.804;2023-02-28T07:06:42;100046.53;;;2.58
74321;BMP280;62738;45.772;4.804;2023-02-28T07:09:08;100060.72;;;2.51
74321;BMP280;62738;45.772;4.804;2023-02-28T07:11:37;100067.94;;;2.65
74321;BMP280;62738;45.772;4.804;2023-02-28T07:14:03;100061.25;;;2.61
74321;BMP280;62738;45.772;4.804;2023-02-28T07:16:30;100063.19;;;2.49
74321;BMP280;62738;45.772;4.804;2023-02-28T07:18:57;100059.50;;;2.69
74321;BMP280;62738;45.772;4.804;2023-02-28T07:21:24;100072.19;;;2.83
74321;BMP280;62738;45.772;4.804;2023-02-28T07:23:51;100079.44;;;2.86
74321;BMP280;62738;45.772;4.804;2023-02-28T07:26:19;100076.22;;;2.93
74321;BMP280;62738;45.772;4.804;2023-02-28T07:28:48;100082.66;;;2.85
74321;BMP280;62738;45.772;4.804;2023-02-28T07:31:16;100075.69;;;2.61
74321;BMP280;62738;45.772;4.804;2023-02-28T07:33:43;100079.66;;;2.66
74321;BMP280;62738;45.772;4.804;2023-02-28T07:36:13;100086.41;;;2.82
74321;BMP280;62738;45.772;4.804;2023-02-28T07:38:45;100082.41;;;2.83
74321;BMP280;62738;45.772;4.804;2023-02-28T07:41:16;100088.13;;;2.57
74321;BMP280;62738;45.772;4.804;2023-02-28T07:43:43;100091.63;;;2.68
74321;BMP280;62738;45.772;4.804;2023-02-28T07:46:13;100087.38;;;2.67
74321;BMP280;62738;45.772;4.804;2023-02-28T07:48:44;100090.88;;;2.73
74321;BMP280;62738;45.772;4.804;2023-02-28T07:51:11;100092.09;;;2.67
74321;BMP280;62738;45.772;4.804;2023-02-28T07:53:37;100095.84;;;2.69
74321;BMP280;62738;45.772;4.804;2023-02-28T07:56:05;100087.38;;;2.56
74321;BMP280;62738;45.772;4.804;2023-02-28T07:58:32;100089.31;;;2.50
74321;BMP280;62738;45.772;4.804;2023-02-28T08:01:05;100091.38;;;2.61
74321;BMP280;62738;45.772;4.804;2023-02-28T08:03:33;100109.53;;;2.64
74321;BMP280;62738;45.772;4.804;2023-02-28T08:05:59;100101.81;;;2.57
74321;BMP280;62738;45.772;4.804;2023-02-28T08:08:26;100106.09;;;2.97
74321;BMP280;62738;45.772;4.804;2023-02-28T08:11:01;100110.09;;;2.90
74321;BMP280;62738;45.772;4.804;2023-02-28T08:13:29;100115.06;;;2.97
74321;BMP280;62738;45.772;4.804;2023-02-28T08:15:56;100111.56;;;2.80
74321;BMP280;62738;45.772;4.804;2023-02-28T08:18:23;100107.25;;;2.51
74321;BMP280;62738;45.772;4.804;2023-02-28T08:20:50;100106.09;;;2.86
74321;BMP280;62738;45.772;4.804;2023-02-28T08:23:17;100106.59;;;3.06
74321;BMP280;62738;45.772;4.804;2023-02-28T08:25:43;100103.84;;;3.01
74321;BMP280;62738;45.772;4.804;2023-02-28T08:28:10;100111.59;;;3.02
74321;BMP280;62738;45.772;4.804;2023-02-28T08:30:37;100117.31;;;2.93
74321;BMP280;62738;45.772;4.804;2023-02-28T08:33:04;100126.03;;;3.36
74321;BMP280;62738;45.772;4.804;2023-02-28T08:35:31;100121.31;;;3.20
74321;BMP280;62738;45.772;4.804;2023-02-28T08:37:57;100120.78;;;3.38
74321;BMP280;62738;45.772;4.804;2023-02-28T08:40:25;100127.03;;;3.33
74321;BMP280;62738;45.772;4.804;2023-02-28T08:42:51;100128.00;;;3.64
74321;BMP280;62738;45.772;4.804;2023-02-28T08:45:18;100141.34;;;4.06
74321;BMP280;62738;45.772;4.804;2023-02-28T08:47:44;100131.69;;;3.94
74321;BMP280;62738;45.772;4.804;2023-02-28T08:50:11;100128.13;;;4.10
74321;BMP280;62738;45.772;4.804;2023-02-28T08:52:44;100133.63;;;3.99
74321;BMP280;62738;45.772;4.804;2023-02-28T08:55:10;100149.63;;;3.95
74321;BMP280;62738;45.772;4.804;2023-02-28T08:57:37;100136.25;;;3.47
74321;BMP280;62738;45.772;4.804;2023-02-28T09:00:04;100138.25;;;3.46
74321;BMP280;62738;45.772;4.804;2023-02-28T09:02:31;100137.50;;;3.40
74321;BMP280;62738;45.772;4.804;2023-02-28T09:04:58;100145.00;;;3.18
74321;BMP280;62738;45.772;4.804;2023-02-28T09:07:25;100144.00;;;3.21
74321;BMP280;62738;45.772;4.804;2023-02-28T09:09:51;100149.97;;;3.13
74321;BMP280;62738;45.772;4.804;2023-02-28T09:12:25;100147.47;;;3.16
74321;BMP280;62738;45.772;4.804;2023-02-28T09:14:53;100154.94;;;3.37
74321;BMP280;62738;45.772;4.804;2023-02-28T09:17:19;100147.72;;;3.57
74321;BMP280;62738;45.772;4.804;2023-02-28T09:19:48;100151.94;;;3.52
74321;BMP280;62738;45.772;4.804;2023-02-28T09:22:15;100142.47;;;3.53
74321;BMP280;62738;45.772;4.804;2023-02-28T09:24:42;100152.44;;;3.51
74321;BMP280;62738;45.772;4.804;2023-02-28T09:27:10;100156.69;;;3.29
74321;BMP280;62738;45.772;4.804;2023-02-28T09:29:37;100153.19;;;3.51
74321;BMP280;62738;45.772;4.804;2023-02-28T09:32:04;100157.41;;;3.74
74321;BMP280;62738;45.772;4.804;2023-02-28T09:34:32;100158.81;;;4.03
74321;BMP280;62738;45.772;4.804;2023-02-28T09:36:59;100161.63;;;3.92
74321;BMP280;62738;45.772;4.804;2023-02-28T09:39:26;100160.59;;;3.95
74321;BMP280;62738;45.772;4.804;2023-02-28T09:41:54;100155.16;;;4.47
74321;BMP280;62738;45.772;4.804;2023-02-28T09:44:40;100165.81;;;4.15
74321;BMP280;62738;45.772;4.804;2023-02-28T09:49:47;100151.00;;;4.30
74321;BMP280;62738;45.772;4.804;2023-02-28T09:52:20;100157.56;;;4.04
74321;BMP280;62738;45.772;4.804;2023-02-28T09:54:47;100142.06;;;4.18
74321;BMP280;62738;45.772;4.804;2023-02-28T10:00:18;100159.91;;;3.72
74321;BMP280;62738;45.772;4.804;2023-02-28T10:03:10;100159.28;;;4.24
74321;BMP280;62738;45.772;4.804;2023-02-28T10:05:51;100162.94;;;4.38
74321;BMP280;62738;45.772;4.804;2023-02-28T10:08:25;100164.31;;;4.14
74321;BMP280;62738;45.772;4.804;2023-02-28T10:11:06;100157.25;;;4.30
74321;BMP280;62738;45.772;4.804;2023-02-28T10:14:04;100181.72;;;4.28
74321;BMP280;62738;45.772;4.804;2023-02-28T10:19:34;100169.63;;;3.79
74321;BMP280;62738;45.772;4.804;2023-02-28T10:22:14;100162.06;;;4.07
74321;BMP280;62738;45.772;4.804;2023-02-28T10:24:47;100170.31;;;4.02
74321;BMP280;62738;45.772;4.804;2023-02-28T10:27:21;100164.41;;;3.70
74321;BMP280;62738;45.772;4.804;2023-02-28T10:29:53;100165.91;;;3.60
74321;BMP280;62738;45.772;4.804;2023-02-28T10:32:23;100176.75;;;4.27
74321;BMP280;62738;45.772;4.804;2023-02-28T10:34:53;100176.78;;;4.04
74321;BMP280;62738;45.772;4.804;2023-02-28T10:37:21;100174.25;;;4.17
74321;BMP280;62738;45.772;4.804;2023-02-28T10:39:48;100178.06;;;4.61
74321;BMP280;62738;45.772;4.804;2023-02-28T10:42:27;100176.66;;;4.43
74321;BMP280;62738;45.772;4.804;2023-02-28T10:45:11;100188.53;;;4.10
74321;BMP280;62738;45.772;4.804;2023-02-28T10:48:02;100181.50;;;4.20
74321;BMP280;62738;45.772;4.804;2023-02-28T10:53:24;100196.22;;;4.17
74321;BMP280;62738;45.772;4.804;2023-02-28T11:01:21;100172.66;;;4.44
74321;BMP280;62738;45.772;4.804;2023-02-28T11:03:49;100178.69;;;4.84
74321;BMP280;62738;45.772;4.804;2023-02-28T11:06:21;100171.25;;;5.14
74321;BMP280;62738;45.772;4.804;2023-02-28T11:08:54;100167.69;;;5.49
74321;BMP280;62738;45.772;4.804;2023-02-28T11:11:24;100169.91;;;5.21
74321;BMP280;62738;45.772;4.804;2023-02-28T11:13:55;100165.66;;;4.43
74321;BMP280;62738;45.772;4.804;2023-02-28T11:16:32;100173.22;;;4.78
74321;BMP280;62738;45.772;4.804;2023-02-28T11:18:59;100161.69;;;5.21
74321;BMP280;62738;45.772;4.804;2023-02-28T11:21:32;100163.16;;;5.52
74321;BMP280;62738;45.772;4.804;2023-02-28T11:24:14;100159.84;;;5.29
74321;BMP280;62738;45.772;4.804;2023-02-28T11:26:47;100153.06;;;5.36
74321;BMP280;62738;45.772;4.804;2023-02-28T11:29:19;100161.81;;;5.34
74321;BMP280;62738;45.772;4.804;2023-02-28T11:32:05;100156.81;;;5.03
74321;BMP280;62738;45.772;4.804;2023-02-28T11:34:32;100140.34;;;4.97
74321;BMP280;62738;45.772;4.804;2023-02-28T11:37:00;100141.31;;;5.35
74321;BMP280;62738;45.772;4.804;2023-02-28T11:39:32;100135.81;;;5.35
74321;BMP280;62738;45.772;4.804;2023-02-28T11:47:51;100140.28;;;5.08
74321;BMP280;62738;45.772;4.804;2023-02-28T11:53:02;100125.59;;;5.54
74321;BMP280;62738;45.772;4.804;2023-02-28T11:55:42;100127.34;;;5.57
74321;BMP280;62738;45.772;4.804;2023-02-28T11:58:29;100129.22;;;5.44
74321;BMP280;62738;45.772;4.804;2023-02-28T12:06:15;100126.41;;;5.25
74321;BMP280;62738;45.772;4.804;2023-02-28T12:14:29;100118.59;;;5.53
74321;BMP280;62738;45.772;4.804;2023-02-28T12:17:03;100120.09;;;5.54
74321;BMP280;62738;45.772;4.804;2023-02-28T12:22:20;100115.13;;;5.96
74321;BMP280;62738;45.772;4.804;2023-02-28T12:27:37;100108.94;;;5.90
74321;BMP280;62738;45.772;4.804;2023-02-28T12:30:13;100106.50;;;5.62
74321;BMP280;62738;45.772;4.804;2023-02-28T12:32:48;100105.84;;;5.99
74321;BMP280;62738;45.772;4.804;2023-02-28T12:35:51;100099.41;;;5.72
74321;BMP280;62738;45.772;4.804;2023-02-28T12:41:33;100097.09;;;5.27
74321;BMP280;62738;45.772;4.804;2023-02-28T12:44:02;100095.91;;;5.72
74321;BMP280;62738;45.772;4.804;2023-02-28T12:46:35;100084.31;;;5.79
74321;BMP280;62738;45.772;4.804;2023-02-28T12:49:10;100081.63;;;5.92
74321;BMP280;62738;45.772;4.804;2023-02-28T12:51:39;100088.00;;;5.81
74321;BMP280;62738;45.772;4.804;2023-02-28T12:54:27;100085.81;;;5.55
74321;BMP280;62738;45.772;4.804;2023-02-28T12:59:48;100071.44;;;6.24
74321;BMP280;62738;45.772;4.804;2023-02-28T13:05:05;100056.66;;;6.09
74321;BMP280;62738;45.772;4.804;2023-02-28T13:10:42;100059.00;;;6.36
74321;BMP280;62738;45.772;4.804;2023-02-28T13:13:18;100053.78;;;6.33
74321;BMP280;62738;45.772;4.804;2023-02-28T13:18:39;100058.38;;;6.44
74321;BMP280;62738;45.772;4.804;2023-02-28T13:21:22;100056.81;;;6.48
74321;BMP280;62738;45.772;4.804;2023-02-28T13:29:00;100041.50;;;6.34
74321;BMP280;62738;45.772;4.804;2023-02-28T13:31:27;100046.22;;;6.52
74321;BMP280;62738;45.772;4.804;2023-02-28T13:36:28;100045.75;;;6.67
74321;BMP280;62738;45.772;4.804;2023-02-28T13:39:02;100045.78;;;6.80
74321;BMP280;62738;45.772;4.804;2023-02-28T13:44:07;100047.19;;;7.00
74321;BMP280;62738;45.772;4.804;2023-02-28T13:47:15;100047.91;;;6.87
74321;BMP280;62738;45.772;4.804;2023-02-28T14:00:16;100048.47;;;6.99
74321;BMP280;62738;45.772;4.804;2023-02-28T14:03:24;100047.34;;;6.75
74321;BMP280;62738;45.772;4.804;2023-02-28T14:06:28;100055.75;;;6.83
74321;BMP280;62738;45.772;4.804;2023-02-28T14:08:58;100055.72;;;6.38
74321;BMP280;62738;45.772;4.804;2023-02-28T14:11:32;100054.84;;;6.62
74321;BMP280;62738;45.772;4.804;2023-02-28T14:14:00;100049.56;;;6.64
74321;BMP280;62738;45.772;4.804;2023-02-28T14:19:28;100048.97;;;6.52
74321;BMP280;62738;45.772;4.804;2023-02-28T14:27:43;100037.66;;;6.56
74321;BMP280;62738;45.772;4.804;2023-02-28T14:35:55;100051.84;;;6.92
74321;BMP280;62738;45.772;4.804;2023-02-28T14:38:29;100051.94;;;6.86
74321;BMP280;62738;45.772;4.804;2023-02-28T14:40:58;100044.69;;;6.70
74321;BMP280;62738;45.772;4.804;2023-02-28T14:43:27;100057.25;;;6.52
74321;BMP280;62738;45.772;4.804;2023-02-28T14:45:58;100065.31;;;6.31
74321;BMP280;62738;45.772;4.804;2023-02-28T14:48:26;100052.16;;;6.06
74321;BMP280;62738;45.772;4.804;2023-02-28T14:50:59;100046.13;;;5.88
74321;BMP280;62738;45.772;4.804;2023-02-28T14:53:35;100038.97;;;6.17
74321;BMP280;62738;45.772;4.804;2023-02-28T14:56:02;100042.34;;;6.29
74321;BMP280;62738;45.772;4.804;2023-02-28T14:58:33;100039.97;;;6.01
74321;BMP280;62738;45.772;4.804;2023-02-28T15:01:02;100044.28;;;6.47
74321;BMP280;62738;45.772;4.804;2023-02-28T15:03:38;100042.63;;;6.25
74321;BMP280;62738;45.772;4.804;2023-02-28T15:06:16;100043.97;;;6.19
74321;BMP280;62738;45.772;4.804;2023-02-28T15:08:45;100043.44;;;6.39
74321;BMP280;62738;45.772;4.804;2023-02-28T15:11:16;100043.81;;;6.30
74321;BMP280;62738;45.772;4.804;2023-02-28T15:13:47;100044.69;;;6.19
74321;BMP280;62738;45.772;4.804;2023-02-28T15:16:37;100043.72;;;6.17
74321;BMP280;62738;45.772;4.804;2023-02-28T15:19:26;100037.41;;;6.40
74321;BMP280;62738;45.772;4.804;2023-02-28T15:22:06;100035.56;;;6.11
74321;BMP280;62738;45.772;4.804;2023-02-28T15:24:39;100026.34;;;5.90
74321;BMP280;62738;45.772;4.804;2023-02-28T15:27:12;100051.78;;;5.77
74321;BMP280;62738;45.772;4.804;2023-02-28T15:29:46;100037.22;;;6.01
74321;BMP280;62738;45.772;4.804;2023-02-28T15:32:31;100035.91;;;6.21
74321;BMP280;62738;45.772;4.804;2023-02-28T15:35:17;100042.63;;;6.25
74321;BMP280;62738;45.772;4.804;2023-02-28T15:37:47;100047.94;;;6.04
74321;BMP280;62738;45.772;4.804;2023-02-28T15:40:40;100048.25;;;6.01
74321;BMP280;62738;45.772;4.804;2023-02-28T15:43:12;100063.34;;;5.94
74321;BMP280;62738;45.772;4.804;2023-02-28T15:45:51;100048.88;;;5.70
74321;BMP280;62738;45.772;4.804;2023-02-28T15:49:00;100059.63;;;5.73
74321;BMP280;62738;45.772;4.804;2023-02-28T15:51:33;100060.44;;;5.44
74321;BMP280;62738;45.772;4.804;2023-02-28T15:54:04;100066.91;;;5.46
74321;BMP280;62738;45.772;4.804;2023-02-28T15:56:33;100060.69;;;5.64
74321;BMP280;62738;45.772;4.804;2023-02-28T15:59:02;100051.41;;;5.68
74321;BMP280;62738;45.772;4.804;2023-02-28T16:01:31;100056.56;;;5.95
74321;BMP280;62738;45.772;4.804;2023-02-28T16:04:11;100058.56;;;5.76
74321;BMP280;62738;45.772;4.804;2023-02-28T16:06:41;100075.06;;;5.76
74321;BMP280;62738;45.772;4.804;2023-02-28T16:09:12;100078.28;;;5.80
74321;BMP280;62738;45.772;4.804;2023-02-28T16:11:49;100078.81;;;5.54
74321;BMP280;62738;45.772;4.804;2023-02-28T16:14:22;100075.00;;;5.39
74321;BMP280;62738;45.772;4.804;2023-02-28T16:16:52;100082.44;;;5.44
74321;BMP280;62738;45.772;4.804;2023-02-28T16:19:21;100082.75;;;5.59
74321;BMP280;62738;45.772;4.804;2023-02-28T16:21:48;100088.09;;;5.51
74321;BMP280;62738;45.772;4.804;2023-02-28T16:24:15;100074.34;;;5.51
74321;BMP280;62738;45.772;4.804;2023-02-28T16:26:44;100085.06;;;5.55
74321;BMP280;62738;45.772;4.804;2023-02-28T16:29:29;100089.31;;;5.32
74321;BMP280;62738;45.772;4.804;2023-02-28T16:31:58;100092.47;;;5.17
74321;BMP280;62738;45.772;4.804;2023-02-28T16:34:26;100096.81;;;5.07
74321;BMP280;62738;45.772;4.804;2023-02-28T16:36:52;100097.84;;;5.28
74321;BMP280;62738;45.772;4.804;2023-02-28T16:39:20;100085.56;;;5.05
74321;BMP280;62738;45.772;4.804;2023-02-28T16:41:48;100091.13;;;4.93